sensor_id;sensor_type;location;lat;lon;timestamp;pressure;altitude;pressure_sealevel;temperature
65272;BMP280;51868;48.812;8.198;2023-04-23T02:32:44;99806.78;;;13.97
65272;BMP280;51868;48.812;8.198;2023-04-23T02:35:12;99807.47;;;13.95
65272;BMP280;51868;48.812;8.198;2023-04-23T02:37:48;99813.00;;;13.93
65272;BMP280;51868;48.812;8.198;2023-04-23T02:40:17;99804.56;;;13.91
65272;BMP280;51868;48.812;8.198;2023-04-23T02:42:45;99803.19;;;13.92
65272;BMP280;51868;48.812;8.198;2023-04-23T02:45:15;99799.06;;;13.93
65272;BMP280;51868;48.812;8.198;2023-04-23T02:47:42;99789.31;;;13.94
65272;BMP280;51868;48.812;8.198;2023-04-23T02:50:14;99796.19;;;13.91
65272;BMP280;51868;48.812;8.198;2023-04-23T02:52:42;99793.38;;;13.89
65272;BMP280;51868;48.812;8.198;2023-04-23T02:55:10;99790.59;;;13.89
65272;BMP280;51868;48.812;8.198;2023-04-23T02:57:38;99800.28;;;13.88
65272;BMP280;51868;48.812;8.198;2023-04-23T03:00:06;99796.03;;;13.85
65272;BMP280;51868;48.812;8.198;2023-04-23T03:02:34;99807.78;;;13.82
65272;BMP280;51868;48.812;8.198;2023-04-23T03:05:03;99804.16;;;13.77
65272;BMP280;51868;48.812;8.198;2023-04-23T03:07:37;99801.94;;;13.71
65272;BMP280;51868;48.812;8.198;2023-04-23T03:10:05;99799.81;;;13.70
65272;BMP280;51868;48.812;8.198;2023-04-23T03:12:33;99801.19;;;13.69
65272;BMP280;51868;48.812;8.198;2023-04-23T03:15:01;99800.47;;;13.68
65272;BMP280;51868;48.812;8.198;2023-04-23T03:17:30;99791.47;;;13.72
65272;BMP280;51868;48.812;8.198;2023-04-23T03:19:58;99798.56;;;13.75
65272;BMP280;51868;48.812;8.198;2023-04-23T03:22:27;99807.69;;;13.78
65272;BMP280;51868;48.812;8.198;2023-04-23T03:24:56;99806.28;;;13.77
65272;BMP280;51868;48.812;8.198;2023-04-23T03:27:24;99806.28;;;13.77
65272;BMP280;51868;48.812;8.198;2023-04-23T03:29:54;99813.25;;;13.78
65272;BMP280;51868;48.812;8.198;2023-04-23T03:32:22;99809.75;;;13.77
65272;BMP280;51868;48.812;8.198;2023-04-23T03:34:49;99808.34;;;13.76
65272;BMP280;51868;48.812;8.198;2023-04-23T03:37:17;99802.06;;;13.76
65272;BMP280;51868;48.812;8.198;2023-04-23T03:39:45;99802.09;;;13.78
65272;BMP280;51868;48.812;8.198;2023-04-23T03:42:14;99804.16;;;13.75
65272;BMP280;51868;48.812;8.198;2023-04-23T03:44:42;99810.47;;;13.78
65272;BMP280;51868;48.812;8.198;2023-04-23T03:47:09;99806.31;;;13.79
65272;BMP280;51868;48.812;8.198;2023-04-23T03:49:37;99815.44;;;13.81
65272;BMP280;51868;48.812;8.198;2023-04-23T03:52:05;99823.91;;;13.85
65272;BMP280;51868;48.812;8.198;2023-04-23T03:54:35;99813.53;;;13.88
65272;BMP280;51868;48.812;8.198;2023-04-23T03:57:03;99822.00;;;13.92
65272;BMP280;51868;48.812;8.198;2023-04-23T03:59:32;99825.56;;;13.94
65272;BMP280;51868;48.812;8.198;2023-04-23T04:02:01;99827.66;;;13.94
65272;BMP280;51868;48.812;8.198;2023-04-23T04:04:29;99824.84;;;13.94
65272;BMP280;51868;48.812;8.198;2023-04-23T04:06:57;99828.28;;;13.92
65272;BMP280;51868;48.812;8.198;2023-04-23T04:09:26;99821.19;;;13.87
65272;BMP280;51868;48.812;8.198;2023-04-23T04:11:54;99819.72;;;13.84
65272;BMP280;51868;48.812;8.198;2023-04-23T04:14:21;99819.63;;;13.80
65272;BMP280;51868;48.812;8.198;2023-04-23T04:16:51;99825.09;;;13.76
65272;BMP280;51868;48.812;8.198;2023-04-23T04:19:19;99820.06;;;13.72
65272;BMP280;51868;48.812;8.198;2023-04-23T04:21:46;99820.06;;;13.70
65272;BMP280;51868;48.812;8.198;2023-04-23T04:24:15;99818.63;;;13.69
65272;BMP280;51868;48.812;8.198;2023-04-23T04:26:43;99816.47;;;13.68
65272;BMP280;51868;48.812;8.198;2023-04-23T04:29:11;99813.66;;;13.66
65272;BMP280;51868;48.812;8.198;2023-04-23T04:31:39;99808.78;;;13.66
65272;BMP280;51868;48.812;8.198;2023-04-23T04:34:08;99808.06;;;13.66
65272;BMP280;51868;48.812;8.198;2023-04-23T04:36:36;99803.91;;;13.67
65272;BMP280;51868;48.812;8.198;2023-04-23T04:39:03;99812.34;;;13.69
65272;BMP280;51868;48.812;8.198;2023-04-23T04:41:32;99809.59;;;13.71
65272;BMP280;51868;48.812;8.198;2023-04-23T04:43:59;99802.63;;;13.72
65272;BMP280;51868;48.812;8.198;2023-04-23T04:46:27;99809.72;;;13.75
65272;BMP280;51868;48.812;8.198;2023-04-23T04:48:57;99803.47;;;13.77
65272;BMP280;51868;48.812;8.198;2023-04-23T04:51:26;99796.53;;;13.78
65272;BMP280;51868;48.812;8.198;2023-04-23T04:53:54;99792.38;;;13.79
65272;BMP280;51868;48.812;8.198;2023-04-23T04:56:22;99792.38;;;13.79
65272;BMP280;51868;48.812;8.198;2023-04-23T04:58:51;99807.00;;;13.79
65272;BMP280;51868;48.812;8.198;2023-04-23T05:01:30;99818.09;;;13.77
65272;BMP280;51868;48.812;8.198;2023-04-23T05:10:52;99810.81;;;13.64
65272;BMP280;51868;48.812;8.198;2023-04-23T05:13:21;99812.22;;;13.65
65272;BMP280;51868;48.812;8.198;2023-04-23T05:15:48;99805.25;;;13.64
65272;BMP280;51868;48.812;8.198;2023-04-23T05:21:45;99806.81;;;13.71
65272;BMP280;51868;48.812;8.198;2023-04-23T05:24:14;99805.44;;;13.72
65272;BMP280;51868;48.812;8.198;2023-04-23T05:26:44;99809.06;;;13.77
65272;BMP280;51868;48.812;8.198;2023-04-23T05:29:11;99798.00;;;13.81
65272;BMP280;51868;48.812;8.198;2023-04-23T05:32:01;99805.72;;;13.82
65272;BMP280;51868;48.812;8.198;2023-04-23T05:34:29;99802.97;;;13.84
65272;BMP280;51868;48.812;8.198;2023-04-23T05:36:56;99798.19;;;13.87
65272;BMP280;51868;48.812;8.198;2023-04-23T05:39:24;99803.13;;;13.90
65272;BMP280;51868;48.812;8.198;2023-04-23T05:41:53;99800.47;;;13.94
65272;BMP280;51868;48.812;8.198;2023-04-23T05:44:21;99799.78;;;13.96
65272;BMP280;51868;48.812;8.198;2023-04-23T05:47:03;99789.31;;;13.94
65272;BMP280;51868;48.812;8.198;2023-04-23T05:49:31;99793.50;;;13.95
65272;BMP280;51868;48.812;8.198;2023-04-23T05:52:03;99803.25;;;13.94
65272;BMP280;51868;48.812;8.198;2023-04-23T05:54:45;99798.25;;;13.91
65272;BMP280;51868;48.812;8.198;2023-04-23T05:57:23;99789.19;;;13.90
65272;BMP280;51868;48.812;8.198;2023-04-23T05:59:53;99787.81;;;13.91
65272;BMP280;51868;48.812;8.198;2023-04-23T06:02:35;99785.19;;;13.97
65272;BMP280;51868;48.812;8.198;2023-04-23T06:05:03;99787.44;;;14.03
65272;BMP280;51868;48.812;8.198;2023-04-23T06:07:49;99789.66;;;14.09
65272;BMP280;51868;48.812;8.198;2023-04-23T06:10:45;99792.56;;;14.13
65272;BMP280;51868;48.812;8.198;2023-04-23T06:13:18;99798.19;;;14.15
65272;BMP280;51868;48.812;8.198;2023-04-23T06:15:51;99790.56;;;14.17
65272;BMP280;51868;48.812;8.198;2023-04-23T06:18:36;99788.56;;;14.20
65272;BMP280;51868;48.812;8.198;2023-04-23T06:21:08;99788.66;;;14.24
65272;BMP280;51868;48.812;8.198;2023-04-23T06:23:38;99796.38;;;14.26
65272;BMP280;51868;48.812;8.198;2023-04-23T06:26:14;99787.31;;;14.27
65272;BMP280;51868;48.812;8.198;2023-04-23T06:28:49;99787.31;;;14.27
65272;BMP280;51868;48.812;8.198;2023-04-23T06:31:31;99788.00;;;14.26
65272;BMP280;51868;48.812;8.198;2023-04-23T06:33:59;99784.94;;;14.45
65272;BMP280;51868;48.812;8.198;2023-04-23T06:36:29;99785.44;;;14.66
65272;BMP280;51868;48.812;8.198;2023-04-23T06:38:58;99771.88;;;14.84
65272;BMP280;51868;48.812;8.198;2023-04-23T06:41:27;99771.63;;;15.04
65272;BMP280;51868;48.812;8.198;2023-04-23T06:43:57;99778.94;;;15.22
65272;BMP280;51868;48.812;8.198;2023-04-23T06:47:30;99775.78;;;15.39
65272;BMP280;51868;48.812;8.198;2023-04-23T06:50:08;99765.03;;;15.62
65272;BMP280;51868;48.812;8.198;2023-04-23T06:52:50;99762.56;;;15.80
65272;BMP280;51868;48.812;8.198;2023-04-23T06:55:19;99762.09;;;15.94
65272;BMP280;51868;48.812;8.198;2023-04-23T06:58:07;99760.94;;;16.11
65272;BMP280;51868;48.812;8.198;2023-04-23T07:06:57;99756.09;;;16.14
65272;BMP280;51868;48.812;8.198;2023-04-23T07:09:45;99769.88;;;16.00
65272;BMP280;51868;48.812;8.198;2023-04-23T07:12:27;99760.00;;;15.95
65272;BMP280;51868;48.812;8.198;2023-04-23T07:14:57;99762.88;;;15.99
65272;BMP280;51868;48.812;8.198;2023-04-23T07:17:35;99760.06;;;15.99
65272;BMP280;51868;48.812;8.198;2023-04-23T07:20:04;99764.41;;;16.08
65272;BMP280;51868;48.812;8.198;2023-04-23T07:22:36;99754.81;;;16.21
65272;BMP280;51868;48.812;8.198;2023-04-23T07:25:18;99761.19;;;16.26
65272;BMP280;51868;48.812;8.198;2023-04-23T07:27:49;99753.50;;;16.26
65272;BMP280;51868;48.812;8.198;2023-04-23T07:30:25;99753.53;;;16.28
65272;BMP280;51868;48.812;8.198;2023-04-23T07:32:58;99749.94;;;16.22
65272;BMP280;51868;48.812;8.198;2023-04-23T07:36:05;99747.84;;;16.22
65272;BMP280;51868;48.812;8.198;2023-04-23T07:38:17;99751.94;;;16.15
65272;BMP280;51868;48.812;8.198;2023-04-23T07:41:08;99740.69;;;16.11
65272;BMP280;51868;48.812;8.198;2023-04-23T07:43:39;99742.06;;;16.12
